Time;durP1;ratioP1;P1;durP2;ratioP2;P2;SDS_P1;SDS_P2;PMS_P1;PMS_P2;Temp;Humidity;BMP_temperature;BMP_pressure;BME280_temperature;BME280_humidity;BME280_pressure;Samples;Min_cycle;Max_cycle;Signal;HPM_P1;HPM_P2
2023/06/23 00:02:17;;;;;;;9.80;5.40;;;;;;;18.36;81.28;101532.31;7389073;19;20011;-58
2023/06/23 00:04:44;;;;;;;9.48;5.70;;;;;;;18.36;81.23;101545.72;7392740;19;20263;-58
2023/06/23 00:07:12;;;;;;;9.15;5.43;;;;;;;18.39;80.95;101553.47;7388899;19;20042;-58
2023/06/23 00:09:39;;;;;;;8.55;5.20;;;;;;;18.39;81.06;101556.16;7387797;19;20022;-58
2023/06/23 00:12:07;;;;;;;8.98;5.00;;;;;;;18.45;80.61;101547.53;7391358;19;20019;-57
2023/06/23 00:14:35;;;;;;;8.13;4.60;;;;;;;18.44;80.93;101540.50;7392104;19;20360;-54
2023/06/23 00:17:02;;;;;;;8.00;4.65;;;;;;;18.54;80.73;101543.13;7391463;19;20019;-60
2023/06/23 00:19:31;;;;;;;6.43;4.25;;;;;;;18.54;80.29;101543.13;7390756;19;20043;-56
2023/06/23 00:21:59;;;;;;;8.80;5.03;;;;;;;18.54;80.39;101537.75;7390792;19;20024;-56
2023/06/23 00:24:27;;;;;;;8.38;4.55;;;;;;;18.49;80.05;101535.53;7391151;19;20018;-58
2023/06/23 00:26:54;;;;;;;8.15;4.38;;;;;;;18.53;80.10;101539.59;7388831;19;20023;-57
2023/06/23 00:29:21;;;;;;;7.30;4.70;;;;;;;18.44;80.33;101549.38;7388800;19;20035;-57
2023/06/23 00:31:49;;;;;;;8.32;4.90;;;;;;;18.48;80.20;101568.72;7388672;19;20029;-58
2023/06/23 00:34:17;;;;;;;8.73;4.60;;;;;;;18.52;80.01;101573.63;7391937;19;20413;-58
2023/06/23 00:36:44;;;;;;;8.07;4.38;;;;;;;18.55;79.80;101588.59;7390430;19;20022;-57
2023/06/23 00:39:11;;;;;;;8.98;4.57;;;;;;;18.54;79.61;101597.63;7390093;19;20018;-57
2023/06/23 00:41:38;;;;;;;6.72;4.57;;;;;;;18.43;80.23;101584.38;7389680;19;20089;-58
2023/06/23 00:44:07;;;;;;;7.32;4.65;;;;;;;18.51;79.73;101601.47;7389372;19;20017;-57
2023/06/23 00:46:36;;;;;;;9.07;4.80;;;;;;;18.51;79.84;101604.16;7390029;19;20043;-57
2023/06/23 00:49:03;;;;;;;8.60;5.00;;;;;;;18.60;79.49;101615.00;7390019;19;20018;-57
2023/06/23 00:51:31;;;;;;;6.65;4.47;;;;;;;18.67;79.16;101608.91;7390424;19;20018;-58
2023/06/23 00:53:59;;;;;;;6.63;4.30;;;;;;;18.65;79.42;101610.88;7390476;19;20693;-58
2023/06/23 00:56:27;;;;;;;7.20;4.38;;;;;;;18.67;79.39;101603.53;7389788;19;20039;-58
2023/06/23 00:58:55;;;;;;;7.90;4.40;;;;;;;18.68;78.91;101607.06;7389400;19;20086;-58
2023/06/23 01:01:22;;;;;;;10.90;4.78;;;;;;;18.70;79.01;101607.78;7389273;19;20015;-59
2023/06/23 01:03:49;;;;;;;7.07;4.20;;;;;;;18.61;79.14;101600.59;7390262;19;20019;-59
2023/06/23 01:06:28;;;;;;;6.78;3.80;;;;;;;18.69;79.10;101611.44;7388182;19;20029;-59
2023/06/23 01:09:12;;;;;;;8.05;4.40;;;;;;;18.65;79.35;101620.75;7389343;19;20059;-58
2023/06/23 01:11:49;;;;;;;7.25;4.20;;;;;;;18.62;78.83;101621.91;7390141;19;20022;-58
2023/06/23 01:14:25;;;;;;;8.20;4.45;;;;;;;18.63;78.98;101620.91;7390499;19;20718;-58
2023/06/23 01:17:10;;;;;;;6.97;4.10;;;;;;;18.61;78.92;101627.41;7389054;19;20018;-55
2023/06/23 01:19:48;;;;;;;8.57;3.72;;;;;;;18.59;78.99;101632.09;7388420;19;20142;-52
2023/06/23 01:22:41;;;;;;;6.45;3.90;;;;;;;18.65;78.63;101634.19;7388824;19;20090;-54
2023/06/23 01:25:33;;;;;;;6.88;4.57;;;;;;;18.61;79.35;101633.63;7387019;19;20014;-57
2023/06/23 01:28:32;;;;;;;7.32;4.30;;;;;;;18.58;79.19;101641.94;7388035;19;20390;-59
2023/06/23 01:31:02;;;;;;;7.65;4.00;;;;;;;18.50;79.81;101641.81;7390399;19;20018;-59
2023/06/23 01:33:37;;;;;;;6.82;4.25;;;;;;;18.51;79.74;101630.97;7389664;19;20104;-56
2023/06/23 01:36:08;;;;;;;7.20;4.32;;;;;;;18.56;79.24;101622.47;7389119;19;20094;-50
2023/06/23 01:38:43;;;;;;;7.50;4.38;;;;;;;18.57;79.23;101623.31;7388357;19;20045;-58
2023/06/23 01:41:18;;;;;;;7.85;4.78;;;;;;;18.55;79.13;101617.28;7388565;19;20018;-59
2023/06/23 01:43:50;;;;;;;7.25;3.90;;;;;;;18.54;79.22;101624.44;7392850;19;20052;-59
2023/06/23 01:46:25;;;;;;;7.60;4.18;;;;;;;18.52;78.76;101616.56;7396396;19;20030;-60
2023/06/23 01:48:57;;;;;;;8.15;3.85;;;;;;;18.49;78.64;101611.47;7395364;19;20033;-53
2023/06/23 01:51:27;;;;;;;8.43;4.20;;;;;;;18.50;78.65;101613.16;7396450;19;20034;-57
2023/06/23 01:53:56;;;;;;;7.40;4.07;;;;;;;18.60;78.17;101623.88;7396267;19;20035;-56
2023/06/23 01:56:25;;;;;;;7.03;4.15;;;;;;;18.57;78.05;101624.16;7395407;19;20022;-59
2023/06/23 01:58:56;;;;;;;6.95;4.40;;;;;;;18.54;78.36;101628.97;7395101;19;20496;-56
2023/06/23 02:01:24;;;;;;;10.20;4.60;;;;;;;18.55;78.43;101622.63;7393585;19;20047;-55
2023/06/23 02:03:52;;;;;;;7.55;4.25;;;;;;;18.54;78.71;101627.13;7395772;19;20021;-56
2023/06/23 02:06:21;;;;;;;8.20;4.40;;;;;;;18.60;78.16;101626.56;7394974;19;20094;-55
2023/06/23 02:08:50;;;;;;;6.22;3.80;;;;;;;18.61;77.99;101633.63;7393435;19;20014;-56
2023/06/23 02:11:18;;;;;;;8.20;4.53;;;;;;;18.58;77.92;101639.25;7396041;19;20018;-56
2023/06/23 02:13:46;;;;;;;7.90;4.47;;;;;;;18.62;77.86;101632.66;7396146;19;20019;-56
2023/06/23 02:16:14;;;;;;;7.90;4.45;;;;;;;18.64;77.66;101629.81;7395200;19;20011;-56
2023/06/23 02:18:42;;;;;;;8.27;4.50;;;;;;;18.60;77.64;101639.16;7394954;19;20026;-56
2023/06/23 02:21:12;;;;;;;7.82;4.18;;;;;;;18.60;77.29;101621.22;7395291;19;20043;-55
2023/06/23 02:23:40;;;;;;;7.95;4.63;;;;;;;18.60;77.32;101615.00;7395134;19;20491;-56
2023/06/23 02:26:09;;;;;;;5.95;3.67;;;;;;;18.56;77.32;101614.44;7394826;19;20051;-56
2023/06/23 02:28:36;;;;;;;8.27;4.18;;;;;;;18.56;77.01;101606.38;7393999;19;20014;-55
2023/06/23 02:31:05;;;;;;;7.18;4.40;;;;;;;18.48;77.19;101593.69;7395250;19;20010;-57
2023/06/23 02:33:33;;;;;;;7.15;4.50;;;;;;;18.54;77.20;101596.78;7393455;19;20026;-58
2023/06/23 02:36:03;;;;;;;7.20;4.15;;;;;;;18.55;76.86;101585.94;7394349;19;20023;-57
2023/06/23 02:38:32;;;;;;;7.35;4.13;;;;;;;18.55;76.96;101602.03;7394223;19;20018;-57
2023/06/23 02:41:01;;;;;;;6.50;3.67;;;;;;;18.65;76.60;101610.03;7394961;19;20043;-57
2023/06/23 02:43:35;;;;;;;6.65;3.97;;;;;;;18.66;76.81;101617.97;7394532;19;20022;-55
2023/06/23 02:46:05;;;;;;;7.18;4.13;;;;;;;18.65;76.46;101626.13;7394396;19;20039;-57
2023/06/23 02:48:37;;;;;;;6.97;3.80;;;;;;;18.74;76.30;101628.84;7393791;19;20025;-56
2023/06/23 02:51:11;;;;;;;7.17;3.97;;;;;;;18.71;76.34;101633.66;7394890;19;20025;-57
2023/06/23 02:53:45;;;;;;;7.15;4.22;;;;;;;18.72;76.25;101636.19;7394528;19;20089;-58
2023/06/23 02:56:18;;;;;;;9.27;4.05;;;;;;;18.71;76.31;101631.81;7392042;19;20039;-58
2023/06/23 02:58:47;;;;;;;;;;;;;;;18.54;76.33;101635.19;7392524;19;20032;-54
2023/06/23 03:01:16;;;;;;;6.30;3.65;;;;;;;18.47;77.34;101644.81;7394075;19;19919;-50
2023/06/23 03:03:44;;;;;;;8.25;4.80;;;;;;;18.58;77.30;101639.25;7394081;19;20123;-55
2023/06/23 03:06:20;;;;;;;8.65;5.03;;;;;;;18.65;76.91;101644.91;7393647;19;20026;-56
2023/06/23 03:08:48;;;;;;;8.63;4.72;;;;;;;18.60;76.86;101648.03;7393807;19;20035;-57
2023/06/23 03:11:17;;;;;;;7.70;4.55;;;;;;;18.64;76.75;101660.16;7391958;19;20376;-58
2023/06/23 03:13:45;;;;;;;8.25;4.88;;;;;;;18.61;77.02;101660.44;7393596;19;20039;-54
2023/06/23 03:16:19;;;;;;;10.75;5.32;;;;;;;18.63;76.95;101654.97;7393216;19;20070;-59
2023/06/23 03:18:53;;;;;;;10.55;5.38;;;;;;;18.67;76.70;101656.38;7392343;19;20022;-59
2023/06/23 03:21:22;;;;;;;10.40;5.20;;;;;;;18.67;76.95;101662.56;7393515;19;20528;-59
2023/06/23 03:23:54;;;;;;;8.77;5.28;;;;;;;18.66;76.83;101677.00;7393405;19;20102;-59
2023/06/23 03:26:23;;;;;;;7.97;4.80;;;;;;;18.69;76.70;101675.84;7392937;19;20018;-59
2023/06/23 03:28:55;;;;;;;7.78;4.90;;;;;;;18.69;76.87;101684.72;7392521;19;20467;-52
2023/06/23 03:31:24;;;;;;;9.70;5.03;;;;;;;18.69;77.03;101683.88;7393986;19;20074;-53
2023/06/23 03:33:54;;;;;;;8.95;4.68;;;;;;;18.66;77.04;101697.56;7391269;19;20514;-50
2023/06/23 03:36:24;;;;;;;9.23;5.32;;;;;;;18.62;76.83;101705.09;7390565;19;20047;-50
2023/06/23 03:39:01;;;;;;;8.05;4.70;;;;;;;18.63;77.13;101709.47;7392135;19;20018;-52
2023/06/23 03:41:30;;;;;;;9.13;5.63;;;;;;;18.63;76.94;101709.47;7393096;19;20424;-53
2023/06/23 03:44:04;;;;;;;8.95;5.28;;;;;;;18.70;76.85;101718.69;7393059;19;20131;-58
2023/06/23 03:46:51;;;;;;;;;;;;;;;18.54;77.20;101717.50;7392603;19;20081;-58
2023/06/23 03:49:22;;;;;;;9.32;5.47;;;;;;;18.54;77.78;101730.91;7391151;19;19922;-58
2023/06/23 03:51:52;;;;;;;8.35;5.13;;;;;;;18.66;77.67;101733.34;7392856;19;20535;-58
2023/06/23 03:54:20;;;;;;;10.20;5.45;;;;;;;18.73;77.06;101731.81;7392695;19;20114;-58
2023/06/23 03:56:50;;;;;;;8.40;5.30;;;;;;;18.65;78.03;101733.47;7390077;19;20522;-58
2023/06/23 03:59:19;;;;;;;9.90;5.20;;;;;;;18.72;77.63;101735.47;7390668;19;20054;-58
2023/06/23 04:01:48;;;;;;;9.50;5.35;;;;;;;18.74;77.68;101738.88;7391560;19;20039;-59
2023/06/23 04:04:17;;;;;;;9.38;5.38;;;;;;;18.79;77.65;101745.66;7390518;19;20015;-58
2023/06/23 04:06:47;;;;;;;10.45;5.70;;;;;;;18.82;77.48;101756.09;7391091;19;20028;-58
2023/06/23 04:09:18;;;;;;;8.65;5.22;;;;;;;18.83;77.78;101752.41;7389287;19;20043;-58
2023/06/23 04:11:48;;;;;;;8.48;5.43;;;;;;;18.79;77.89;101767.97;7392054;19;20021;-57
2023/06/23 04:14:17;;;;;;;8.80;5.30;;;;;;;18.84;77.99;101762.16;7391128;19;20094;-58
2023/06/23 04:16:45;;;;;;;9.32;5.60;;;;;;;18.83;77.98;101769.38;7390573;19;20035;-59
2023/06/23 04:19:15;;;;;;;10.02;5.15;;;;;;;18.83;77.70;101768.53;7390962;19;20026;-59
2023/06/23 04:21:43;;;;;;;8.82;5.40;;;;;;;18.87;77.78;101775.31;7391474;19;20019;-60
2023/06/23 04:24:12;;;;;;;9.75;5.70;;;;;;;18.79;78.34;101784.06;7391801;19;20343;-59
2023/06/23 04:26:42;;;;;;;9.75;5.55;;;;;;;18.82;78.53;101780.25;7390749;19;20023;-60
2023/06/23 04:29:12;;;;;;;11.80;6.03;;;;;;;18.75;78.69;101798.75;7389064;19;20022;-59
2023/06/23 04:31:40;;;;;;;9.45;5.32;;;;;;;18.88;78.46;101795.78;7391438;19;20022;-58
2023/06/23 04:34:08;;;;;;;9.90;5.32;;;;;;;18.88;78.38;101801.16;7390920;19;20086;-57
2023/06/23 04:36:43;;;;;;;12.38;6.20;;;;;;;18.88;78.52;101812.72;7389509;19;20022;-57
2023/06/23 04:39:17;;;;;;;12.05;6.18;;;;;;;18.86;78.90;101819.25;7390501;19;20119;-57
2023/06/23 04:41:47;;;;;;;9.98;5.93;;;;;;;18.86;78.87;101813.88;7390657;19;20014;-59
2023/06/23 04:44:18;;;;;;;11.82;6.07;;;;;;;18.83;78.93;101820.38;7389617;19;20126;-58
2023/06/23 04:46:48;;;;;;;9.10;5.40;;;;;;;18.79;79.38;101827.00;7389381;19;20018;-60
2023/06/23 04:49:19;;;;;;;8.73;5.78;;;;;;;18.81;79.26;101827.72;7389843;19;20034;-59
2023/06/23 04:51:52;;;;;;;9.05;5.72;;;;;;;18.84;79.20;101824.72;7388995;19;20010;-60
2023/06/23 04:54:28;;;;;;;10.25;5.60;;;;;;;18.86;79.21;101825.47;7391066;19;20067;-59
2023/06/23 04:57:02;;;;;;;12.10;5.78;;;;;;;18.85;79.41;101826.44;7389454;19;20030;-59
2023/06/23 04:59:34;;;;;;;12.38;6.78;;;;;;;18.83;79.20;101823.03;7389616;19;20015;-58
2023/06/23 05:02:03;;;;;;;9.77;6.35;;;;;;;18.82;79.20;101824.03;7389771;19;20118;-59
2023/06/23 05:04:34;;;;;;;10.70;6.13;;;;;;;18.86;78.71;101821.94;7390207;19;20066;-61
2023/06/23 05:07:03;;;;;;;9.75;4.90;;;;;;;18.88;78.70;101815.41;7389240;19;20019;-61
2023/06/23 05:09:34;;;;;;;9.93;5.75;;;;;;;18.90;78.55;101817.97;7389401;19;20022;-61
2023/06/23 05:12:04;;;;;;;9.68;5.15;;;;;;;18.89;78.87;101818.97;7390017;19;20011;-61
2023/06/23 05:14:34;;;;;;;9.57;5.55;;;;;;;18.79;78.90;101820.78;7390248;19;20033;-60
2023/06/23 05:17:02;;;;;;;8.10;4.80;;;;;;;18.81;78.82;101821.47;7389319;19;20022;-61
2023/06/23 05:19:31;;;;;;;11.23;4.90;;;;;;;18.89;78.63;101827.03;7394387;19;20046;-61
2023/06/23 05:22:00;;;;;;;8.27;4.90;;;;;;;18.83;78.95;101828.41;7395254;19;20030;-61
2023/06/23 05:24:28;;;;;;;9.82;5.15;;;;;;;18.86;78.40;101827.31;7397645;19;20018;-60
2023/06/23 05:27:01;;;;;;;8.30;4.78;;;;;;;18.84;78.73;101830.09;7396336;19;20039;-62
2023/06/23 05:29:31;;;;;;;8.80;4.95;;;;;;;18.86;78.92;101835.34;7395826;19;20022;-60
2023/06/23 05:32:00;;;;;;;7.78;4.78;;;;;;;18.79;78.97;101834.22;7396653;19;20078;-60
2023/06/23 05:34:28;;;;;;;9.40;4.50;;;;;;;18.83;78.79;101838.31;7397024;19;20018;-57
2023/06/23 05:36:59;;;;;;;10.25;4.80;;;;;;;18.91;78.77;101838.44;7395918;19;20036;-57
2023/06/23 05:39:29;;;;;;;10.18;4.65;;;;;;;18.93;78.96;101844.53;7395577;19;20030;-57
2023/06/23 05:41:57;;;;;;;9.40;4.85;;;;;;;18.93;78.80;101834.66;7396462;19;20059;-57
2023/06/23 05:44:24;;;;;;;8.23;4.68;;;;;;;18.94;79.21;101841.69;7396490;19;20036;-57
2023/06/23 05:46:55;;;;;;;7.57;4.53;;;;;;;18.91;79.55;101843.81;7396225;19;20097;-57
2023/06/23 05:49:25;;;;;;;8.55;4.85;;;;;;;18.94;79.73;101840.84;7395899;19;20014;-57
2023/06/23 05:51:59;;;;;;;9.82;5.13;;;;;;;18.94;79.23;101841.69;7396590;19;20172;-57
2023/06/23 05:54:29;;;;;;;8.15;4.55;;;;;;;18.99;79.15;101842.13;7396309;19;20043;-57
2023/06/23 05:57:03;;;;;;;9.00;4.30;;;;;;;19.06;78.81;101849.63;7395444;19;20022;-57
2023/06/23 05:59:38;;;;;;;10.98;5.22;;;;;;;18.98;79.58;101848.47;7393823;19;20026;-57
2023/06/23 06:02:08;;;;;;;9.82;4.93;;;;;;;19.05;79.21;101853.31;7395325;19;20074;-57
2023/06/23 06:04:39;;;;;;;9.88;5.60;;;;;;;18.98;79.31;101847.63;7394649;19;20018;-57
2023/06/23 06:07:09;;;;;;;11.55;5.60;;;;;;;18.95;79.79;101851.44;7394798;19;20034;-57
2023/06/23 06:09:37;;;;;;;9.02;4.95;;;;;;;19.02;79.82;101857.09;7394889;19;20039;-57
2023/06/23 06:12:07;;;;;;;10.05;4.93;;;;;;;19.05;79.51;101861.34;7396058;19;20023;-57
2023/06/23 06:14:35;;;;;;;8.77;5.18;;;;;;;19.06;79.33;101863.03;7396261;19;20030;-61
2023/06/23 06:17:03;;;;;;;10.10;5.32;;;;;;;19.08;79.51;101864.59;7393268;19;20034;-61
2023/06/23 06:19:32;;;;;;;8.48;5.18;;;;;;;19.10;79.29;101876.03;7394206;19;20014;-62
2023/06/23 06:22:01;;;;;;;9.60;5.38;;;;;;;19.12;79.24;101879.44;7394090;19;20022;-62
2023/06/23 06:24:30;;;;;;;9.60;5.50;;;;;;;19.10;79.43;101883.25;7395285;19;20015;-58
2023/06/23 06:27:00;;;;;;;10.27;5.68;;;;;;;19.10;79.36;101888.63;7394615;19;20014;-58
2023/06/23 06:29:28;;;;;;;10.05;5.32;;;;;;;19.17;79.13;101897.81;7391596;19;20019;-58
2023/06/23 06:31:57;;;;;;;9.05;5.25;;;;;;;19.12;79.27;101900.94;7394472;19;20027;-58
2023/06/23 06:34:26;;;;;;;9.75;5.10;;;;;;;19.21;79.23;101897.38;7394917;19;20014;-58
2023/06/23 06:36:55;;;;;;;9.15;5.97;;;;;;;19.23;79.22;101902.59;7394235;19;20021;-58
2023/06/23 06:39:24;;;;;;;11.30;5.35;;;;;;;19.27;79.05;101912.09;7393452;19;20014;-59
2023/06/23 06:41:53;;;;;;;9.88;6.15;;;;;;;19.27;79.45;101912.09;7394986;19;20029;-59
2023/06/23 06:44:20;;;;;;;10.00;6.38;;;;;;;19.21;79.34;101926.94;7392771;19;20024;-59
2023/06/23 06:46:50;;;;;;;11.15;5.53;;;;;;;19.27;79.54;101928.22;7394345;19;20018;-59
2023/06/23 06:49:19;;;;;;;10.75;6.68;;;;;;;19.24;79.64;101929.34;7393597;19;20528;-59
2023/06/23 06:51:48;;;;;;;9.57;5.80;;;;;;;19.24;79.50;101948.13;7394232;19;20023;-59
2023/06/23 06:54:16;;;;;;;11.65;6.53;;;;;;;19.24;79.65;101941.94;7394085;19;20017;-58
2023/06/23 06:56:46;;;;;;;10.43;6.10;;;;;;;19.20;80.06;101954.78;7390077;19;20490;-59
2023/06/23 06:59:14;;;;;;;9.80;5.93;;;;;;;19.15;80.48;101951.66;7392343;19;20018;-59
2023/06/23 07:01:42;;;;;;;10.85;6.18;;;;;;;19.21;80.10;101953.78;7392039;19;20011;-59
2023/06/23 07:04:10;;;;;;;10.60;6.63;;;;;;;19.26;79.86;101950.69;7390222;19;20015;-59
2023/06/23 07:06:37;;;;;;;11.65;6.45;;;;;;;19.30;79.87;101959.31;7393148;19;20025;-59
2023/06/23 07:09:05;;;;;;;10.07;6.50;;;;;;;19.27;79.85;101964.94;7390797;19;20037;-59
2023/06/23 07:11:32;;;;;;;9.48;6.22;;;;;;;19.29;80.06;101963.00;7393582;19;20018;-59
2023/06/23 07:14:00;;;;;;;11.10;6.43;;;;;;;19.31;79.84;101963.69;7393230;19;20037;-59
2023/06/23 07:16:33;;;;;;;8.98;6.13;;;;;;;19.23;80.21;101967.06;7392379;19;20099;-59
2023/06/23 07:19:00;;;;;;;12.57;6.63;;;;;;;19.27;79.94;101967.63;7392164;19;20039;-60
2023/06/23 07:21:28;;;;;;;11.20;6.40;;;;;;;19.31;79.74;101971.72;7392777;19;20019;-59
2023/06/23 07:23:55;;;;;;;10.48;6.57;;;;;;;19.36;79.75;101973.03;7391522;19;20018;-59
2023/06/23 07:26:22;;;;;;;10.48;5.88;;;;;;;19.37;79.86;101979.25;7392328;19;20014;-59
2023/06/23 07:28:50;;;;;;;9.60;5.75;;;;;;;19.41;79.63;101977.97;7392638;19;20035;-59
2023/06/23 07:31:17;;;;;;;11.02;6.60;;;;;;;19.39;79.64;101986.19;7393541;19;20084;-60
2023/06/23 07:33:44;;;;;;;9.43;5.65;;;;;;;19.44;79.62;101997.34;7395473;19;20037;-59
2023/06/23 07:36:12;;;;;;;10.65;5.78;;;;;;;19.49;79.55;101991.53;7391547;19;20035;-59
2023/06/23 07:38:39;;;;;;;9.68;5.90;;;;;;;19.56;79.89;102000.75;7392468;19;20022;-59
2023/06/23 07:41:06;;;;;;;11.15;6.28;;;;;;;19.60;79.69;102004.84;7389454;19;20032;-59
2023/06/23 07:43:34;;;;;;;10.15;6.03;;;;;;;19.61;79.96;102008.38;7390644;19;20028;-59
2023/06/23 07:46:01;;;;;;;11.05;5.97;;;;;;;19.61;79.73;102008.38;7388906;19;20033;-59
2023/06/23 07:48:28;;;;;;;9.13;5.75;;;;;;;19.52;80.03;102012.78;7391513;19;20028;-61
2023/06/23 07:50:56;;;;;;;10.43;6.00;;;;;;;19.54;80.17;102016.19;7392422;19;20081;-61
2023/06/23 07:53:23;;;;;;;11.45;6.00;;;;;;;19.58;80.12;102022.97;7392318;19;20551;-61
2023/06/23 07:55:50;;;;;;;10.00;5.45;;;;;;;19.61;79.87;102019.13;7391168;19;20018;-61
2023/06/23 07:58:17;;;;;;;10.50;5.70;;;;;;;19.65;79.97;102028.63;7391791;19;20038;-61
2023/06/23 08:00:46;;;;;;;10.07;5.53;;;;;;;19.69;79.52;102030.94;7388826;19;20014;-61
2023/06/23 08:03:13;;;;;;;9.10;5.55;;;;;;;19.71;79.63;102034.31;7390312;19;20022;-60
2023/06/23 08:05:41;;;;;;;8.85;5.07;;;;;;;19.69;79.49;102041.69;7391020;19;20026;-61
2023/06/23 08:08:08;;;;;;;10.27;5.80;;;;;;;19.68;79.72;102041.81;7391630;19;20018;-61
2023/06/23 08:10:36;;;;;;;9.75;5.50;;;;;;;19.76;79.09;102046.47;7390088;19;20014;-61
2023/06/23 08:13:03;;;;;;;10.55;5.07;;;;;;;19.81;78.67;102050.44;7390994;19;20022;-61
2023/06/23 08:15:30;;;;;;;11.32;5.60;;;;;;;19.83;78.63;102047.59;7390766;19;20137;-61
2023/06/23 08:17:58;;;;;;;11.20;5.43;;;;;;;19.79;78.57;102048.88;7390888;19;20018;-61
2023/06/23 08:20:29;;;;;;;9.93;5.57;;;;;;;19.78;78.52;102058.78;7389748;19;20026;-61
2023/06/23 08:22:56;;;;;;;9.15;5.50;;;;;;;19.76;78.31;102059.91;7390449;19;20022;-60
2023/06/23 08:25:23;;;;;;;8.25;5.20;;;;;;;19.83;78.39;102066.44;7391154;19;20460;-60
2023/06/23 08:27:51;;;;;;;9.75;5.57;;;;;;;19.92;78.06;102074.50;7390488;19;20479;-61
2023/06/23 08:30:28;;;;;;;12.27;6.10;;;;;;;19.93;78.52;102080.72;7389456;19;20018;-60
2023/06/23 08:32:56;;;;;;;11.30;5.70;;;;;;;19.94;78.54;102079.72;7391079;19;20015;-60
2023/06/23 08:35:23;;;;;;;9.05;5.60;;;;;;;19.96;78.69;102077.75;7391107;19;20011;-60
2023/06/23 08:37:51;;;;;;;10.80;6.53;;;;;;;19.91;78.96;102088.91;7390571;19;20363;-60
2023/06/23 08:40:19;;;;;;;8.70;5.68;;;;;;;19.92;78.71;102087.94;7389451;19;20484;-60
2023/06/23 08:42:46;;;;;;;9.38;5.68;;;;;;;20.02;78.99;102089.78;7389180;19;20022;-60
2023/06/23 08:45:16;;;;;;;10.60;6.35;;;;;;;20.11;78.95;102096.97;7391063;19;20014;-61
2023/06/23 08:47:49;;;;;;;9.73;6.60;;;;;;;20.17;78.69;102099.13;7389879;19;20026;-61
2023/06/23 08:50:17;;;;;;;10.98;5.75;;;;;;;20.19;79.00;102100.69;7388842;19;20019;-61
2023/06/23 08:52:44;;;;;;;13.20;7.40;;;;;;;20.20;78.74;102102.38;7388673;19;20095;-61
2023/06/23 08:55:12;;;;;;;10.90;6.22;;;;;;;20.21;79.01;102106.75;7390297;19;20018;-60
2023/06/23 08:57:39;;;;;;;10.88;6.97;;;;;;;20.25;79.35;102109.16;7389164;19;20718;-60
2023/06/23 09:00:10;;;;;;;11.32;7.65;;;;;;;20.25;79.87;102119.91;7388474;19;20025;-60
2023/06/23 09:02:37;;;;;;;11.90;7.00;;;;;;;20.26;79.71;102124.31;7389438;19;20018;-60
2023/06/23 09:05:05;;;;;;;13.68;8.10;;;;;;;20.21;79.62;102122.03;7386640;19;20047;-60
2023/06/23 09:07:32;;;;;;;12.02;7.55;;;;;;;20.22;79.65;102126.44;7389227;19;20011;-60
2023/06/23 09:10:00;;;;;;;15.52;8.13;;;;;;;20.24;79.87;102118.22;7388851;19;20082;-60
2023/06/23 09:12:28;;;;;;;12.10;7.72;;;;;;;20.24;79.87;102123.63;7389972;19;20015;-60
2023/06/23 09:14:57;;;;;;;12.23;7.60;;;;;;;20.26;79.55;102124.31;7389483;19;20014;-61
2023/06/23 09:17:26;;;;;;;14.07;8.07;;;;;;;20.25;80.00;102128.00;7389712;19;20029;-61
2023/06/23 09:19:54;;;;;;;15.80;7.75;;;;;;;20.25;79.70;102130.69;7388315;19;20086;-61
2023/06/23 09:22:23;;;;;;;13.98;7.70;;;;;;;20.26;79.81;102138.63;7388203;19;20365;-61
2023/06/23 09:24:50;;;;;;;13.23;7.65;;;;;;;20.27;80.06;102143.00;7388207;19;20031;-61
2023/06/23 09:27:17;;;;;;;12.10;7.50;;;;;;;20.24;80.10;102142.44;7388935;19;20018;-60
2023/06/23 09:29:59;;;;;;;14.68;7.95;;;;;;;20.30;79.74;102144.53;7386556;19;20018;-61
2023/06/23 09:32:28;;;;;;;13.30;7.63;;;;;;;20.24;79.62;102143.28;7389271;19;20022;-61
2023/06/23 09:34:56;;;;;;;12.05;7.43;;;;;;;20.26;79.72;102154.78;7389978;19;20487;-62
2023/06/23 09:37:24;;;;;;;12.07;7.32;;;;;;;20.27;79.84;102150.25;7388028;19;20019;-61
2023/06/23 09:39:55;;;;;;;12.85;7.43;;;;;;;20.26;79.67;102153.91;7386420;19;20047;-61
2023/06/23 09:42:24;;;;;;;17.88;8.20;;;;;;;20.22;79.72;102161.41;7387792;19;20007;-62
2023/06/23 09:44:52;;;;;;;14.93;7.80;;;;;;;20.27;79.56;102161.00;7387302;19;20022;-62
2023/06/23 09:47:19;;;;;;;12.77;7.35;;;;;;;20.32;79.27;102164.09;7388196;19;20345;-62
2023/06/23 09:49:48;;;;;;;13.43;7.78;;;;;;;20.35;79.15;102171.91;7387808;19;20018;-62
2023/06/23 09:52:25;;;;;;;12.00;7.25;;;;;;;20.41;78.95;102166.81;7389132;19;20022;-62
2023/06/23 09:54:55;;;;;;;12.25;6.90;;;;;;;20.44;78.92;102165.66;7389058;19;20078;-61
2023/06/23 09:57:22;;;;;;;11.38;6.90;;;;;;;20.49;77.81;102168.81;7385312;19;20047;-59
2023/06/23 09:59:52;;;;;;;11.40;6.97;;;;;;;20.62;77.58;102174.72;7383803;19;20094;-60
2023/06/23 10:02:25;;;;;;;12.98;7.78;;;;;;;20.81;76.49;102167.63;7387768;19;20074;-61
2023/06/23 10:05:00;;;;;;;13.77;7.35;;;;;;;21.00;75.70;102181.03;7389435;19;20014;-61
2023/06/23 10:07:29;;;;;;;12.27;7.13;;;;;;;21.02;75.72;102175.47;7392953;19;20047;-61
2023/06/23 10:10:05;;;;;;;13.18;7.07;;;;;;;21.16;75.47;102185.78;7392772;19;20033;-61
2023/06/23 10:12:48;;;;;;;13.55;7.20;;;;;;;21.26;75.38;102185.78;7395675;19;20060;-61
2023/06/23 10:15:15;;;;;;;14.73;7.40;;;;;;;21.35;74.95;102183.06;7395688;19;20035;-60
2023/06/23 10:17:43;;;;;;;15.35;8.48;;;;;;;21.36;74.93;102187.44;7395204;19;20085;-62
2023/06/23 10:20:11;;;;;;;13.80;8.07;;;;;;;21.43;75.13;102187.69;7393229;19;20022;-61
2023/06/23 10:22:40;;;;;;;12.07;8.15;;;;;;;21.53;74.64;102183.13;7395783;19;20024;-61
2023/06/23 10:25:10;;;;;;;14.57;8.25;;;;;;;21.57;74.20;102179.13;7390996;19;20486;-61
2023/06/23 10:27:41;;;;;;;12.90;8.20;;;;;;;21.61;74.08;102193.16;7394900;19;20022;-60
2023/06/23 10:30:10;;;;;;;13.32;8.82;;;;;;;21.61;74.07;102194.00;7392783;19;20022;-61
2023/06/23 10:32:44;;;;;;;11.27;7.68;;;;;;;21.68;73.00;102194.25;7395026;19;20023;-61
2023/06/23 10:35:12;;;;;;;13.00;7.78;;;;;;;21.74;72.91;102192.78;7394545;19;20026;-61
2023/06/23 10:37:43;;;;;;;14.43;8.35;;;;;;;21.70;72.55;102191.38;7393994;19;20488;-61
2023/06/23 10:40:19;;;;;;;;;;;;;;;21.66;71.98;102194.38;7392664;19;20078;-60
2023/06/23 10:42:50;;;;;;;;;;;;;;;21.59;71.80;102192.44;7395912;19;20324;-60
2023/06/23 10:45:17;;;;;;;14.05;8.60;;;;;;;21.69;72.45;102190.56;7390024;19;19927;-60
2023/06/23 10:47:45;;;;;;;13.07;8.75;;;;;;;21.82;72.22;102192.88;7396068;19;20019;-60
2023/06/23 10:50:14;;;;;;;15.23;9.23;;;;;;;21.89;72.18;102194.81;7392236;19;20017;-61
2023/06/23 10:52:42;;;;;;;12.55;8.00;;;;;;;21.92;71.61;102200.91;7394498;19;20018;-61
2023/06/23 10:55:36;;;;;;;12.63;7.93;;;;;;;21.95;71.03;102198.78;7394338;19;20375;-61
2023/06/23 10:58:18;;;;;;;12.80;7.95;;;;;;;22.03;71.38;102200.69;7392544;19;20029;-61
2023/06/23 11:00:54;;;;;;;12.65;7.57;;;;;;;22.17;70.69;102204.72;7392151;19;20014;-62
2023/06/23 11:03:36;;;;;;;12.82;7.80;;;;;;;22.11;68.76;102207.03;7392095;19;20102;-61
2023/06/23 11:06:05;;;;;;;13.52;8.02;;;;;;;22.07;69.09;102210.19;7393082;19;20064;-61
2023/06/23 11:08:35;;;;;;;12.35;8.00;;;;;;;22.14;68.81;102206.75;7392954;19;20026;-61
2023/06/23 11:11:09;;;;;;;12.52;7.38;;;;;;;22.20;68.81;102207.97;7393642;19;20018;-61
2023/06/23 11:13:43;;;;;;;12.18;6.65;;;;;;;22.32;68.58;102211.28;7392059;19;20056;-62
2023/06/23 11:16:16;;;;;;;11.43;7.05;;;;;;;22.49;67.61;102213.16;7391158;19;20046;-61
2023/06/23 11:18:49;;;;;;;10.35;7.07;;;;;;;22.63;67.10;102215.31;7392698;19;20484;-61
2023/06/23 11:21:18;;;;;;;10.52;7.40;;;;;;;22.63;67.15;102209.91;7393189;19;20010;-61
2023/06/23 11:24:13;;;;;;;13.20;8.30;;;;;;;22.78;66.58;102212.88;7392897;19;20014;-61
2023/06/23 11:26:50;;;;;;;12.63;7.43;;;;;;;22.85;66.81;102215.78;7393109;19;20015;-61
2023/06/23 11:29:20;;;;;;;12.68;7.18;;;;;;;22.97;66.45;102209.16;7391728;19;20413;-61
2023/06/23 11:32:15;;;;;;;10.77;7.60;;;;;;;22.94;66.21;102220.28;7393144;19;20030;-61
2023/06/23 11:34:57;;;;;;;13.60;8.13;;;;;;;22.83;66.75;102218.66;7393710;19;20014;-61
2023/06/23 11:37:31;;;;;;;11.55;7.82;;;;;;;22.75;67.02;102228.56;7392091;19;20094;-61